AirNav   Air Wisconsin Up To $57,000 Bonus
 
 629 users online  

X54 Benger Air Park
Friona, Texas, USA

GOING TO FRIONA?


FAA INFORMATION EFFECTIVE 01 DECEMBER 2022

Location

FAA Identifier: X54
Lat/Long: 34-39-15.2410N 102-41-30.7720W
34-39.254017N 102-41.512867W
34.6542336,-102.6918811
(estimated)
Elevation: 4003 ft. / 1220 m (estimated)
Variation: 09E (1985)
From city: 2 miles NE of FRIONA, TX
Time zone: UTC -6 (UTC -5 during Daylight Saving Time)
Zip code: 79035

Airport Operations

Airport use: Open to the public
Activation date: 06/1944
Control tower: no
ARTCC: ALBUQUERQUE CENTER
FSS: FORT WORTH FLIGHT SERVICE STATION
NOTAMs facility: FTW (NOTAM-D service available)
Attendance: DAYLIGHT HOURS
MON-FRI WINTER MONTHS.
Wind indicator: yes
Segmented circle: no

Airport Communications

CTAF: 122.9

Nearby radio navigation aids

VOR radial/distance  VOR name  Freq  Var
TXOr026/12.0TEXICO VORTAC112.2011E

Airport Services

Fuel available: 100LL JET-A
Parking: hangars and tiedowns
Airframe service: NONE
Powerplant service: NONE
Bottled oxygen: NONE
Bulk oxygen: NONE

Runway Information

Runway 4/22

Dimensions: 3013 x 60 ft. / 918 x 18 m
Surface: asphalt, in poor condition
POT HOLES AND GRVL.
Weight bearing capacity: 
Single wheel: 13.0
Operational restrictions: AGRI ACFT OPNS ON NW SIDE OF RWY.
RUNWAY 4  RUNWAY 22
Traffic pattern: leftleft
Obstructions: 193 ft. bldg, 3100 ft. from runway, 380 ft. left of centerline, 15:1 slope to clearnone
ROAD AT THLD 85 FT LEFT; 3) +5 FT STEEL CORNER POSTS 145 FT FM THLD 77 FT RIGHT.

Runway 17/35

Dimensions: 2700 x 150 ft. / 823 x 46 m
Surface: turf, in poor condition
3 FT VEGETATION, RWY NOT MNTNED. RWY NOT INSPECTED.
RUNWAY 17  RUNWAY 35
Traffic pattern: leftleft
Obstructions: 25 ft. trees, 46 ft. from runway, 63 ft. right of centerline, 1:1 slope to clearnone

Airport Ownership and Management from official FAA records

Ownership: Privately-owned
Owner: HURST PROPERTY HOLDINGS
BOX 241
FRIONA, TX 79035
Manager: ROBERT C. HURST
BOX 241
FRIONA, TX 79035

Airport Operational Statistics

Aircraft based on the field: 3
Single engine airplanes: 3
    
Aircraft operations: avg 20/day *
90% local general aviation
10% transient general aviation
* for 12-month period ending 08 September 2021

Additional Remarks

FOR CD CTC ALBUQUERQUE ARTCC AT 505-856-4861.

Instrument Procedures

There are no published instrument procedures at X54.

Some nearby airports with instrument procedures:

KHRX - Hereford Municipal Airport (22 nm NE)
KCVN - Clovis Regional Airport (23 nm SW)
2T1 - Muleshoe Municipal Airport (28 nm S)
KCVS - Cannon Air Force Base (35 nm SW)
KLIU - Littlefield Taylor Brown Municipal Airport (46 nm S)
 
Loc | Ops | Rwys | IFR | FBO | Links
Com | Nav | Svcs | Stats | Notes

AirBoss

 
Area around X54 (Benger Air Park)
 
Road maps at: MapQuest Bing Google
 
Aerial photo
No photo
 
Sectional chart

 
Airport distance calculator
Flying to Benger Air Park? Find the distance to fly.

From to X54

Sunrise and sunset
Times for 06-Dec-2022
 Local
(UTC-6)
 Zulu
(UTC)
Morning civil twilight07:1713:17
Sunrise07:4513:45
Sunset17:3923:39
Evening civil twilight18:0700:07

Current date and time
Zulu (UTC)  06-Dec-2022 06:46:18
Local (UTC-6)  06-Dec-2022 00:46:18
 
METAR
KHRX 
22nm NE 
060630Z AUTO 26010KT 10SM CLR 10/04 A2985 RMK AO2 T00960038
KCVN 
23nm SW 
060556Z AUTO 22010KT 10SM CLR 08/04 A2991 RMK AO2 SLP109 T00780044 10161 20078 53009
KCVS 
35nm SW 
060555Z AUTO 24006KT 10SM CLR 08/08 A2989 RMK AO2 SLP093 T00770076 10152 20077 $
TAF
KCVS 
35nm SW 
060200Z 0602/0708 27010KT 9999 SKC QNH2986INS BECMG 0615/0616 27010G15KT 9999 SKC QNH3000INS BECMG 0617/0618 28015G25KT 9999 SKC QNH3000INS BECMG 0623/0624 24006KT 9999 SKC QNH2997INS TX16/0621Z TN07/0612Z
NOTAMs
Click for the latest NOTAMs
NOTAMs are issued by the DoD/FAA and will open in a separate window not controlled by AirNav.

 

 
 

Would you like to see your business listed on this page?

 If your business provides an interesting product or service to pilots, flight crews, aircraft, or users of the Benger Air Park, you should consider listing it here.  To start the listing process, click on the button below
 
Add a business
 

Other Pages about Benger Air Park

Update a link
 
Copyright © AirNav, LLC. All rights reserved. Privacy Policy  Contact